Newhall, CA

8:28 PM PST on February 13, 2016 (GMT -0800)
RAWS | | Change Station
CLOSE
Current Station
Personal Weather Station
Location: Newhall, CA
Elevation: 2134 ft
Nearby Weather Stations
Active Advisory: Wind Advisory Active Notice: Public Information Statement

Elev 2134 ft 34.34 °N, 118.52 °W | Updated 32 minutes ago

Clear
Clear
61 °F
Feels Like 61 °F
N
6
Wind Variable Wind from SSW
Gusts 20.0 mph

Today
High -- | Low -- °F
--% Chance of Precip.
Yesterday
High -- | Low -- °F
Precip. -- in
Pressure 30.08 in
Visibility 10.0 miles
Clouds Clear
Dew Point 30 °F
Humidity 31%
Rainfall in
Snow Depth Not available.
6:41 AM 5:35 PM
Waxing Crescent, 37% visible
METAR KWHP 140353Z 27004KT 10SM SKC 23/M02 A3008 RMK LAST
Pressure 30.08 in
Visibility 10.0 miles
Clouds Clear
Dew Point 30 °F
Humidity 31%
Rainfall in
Snow Depth Not available.
6:41 AM 5:35 PM
Waxing Crescent, 37% visible
METAR KWHP 140353Z 27004KT 10SM SKC 23/M02 A3008 RMK LAST

10-Day Weather Forecast

Almanac

Astronomy

Feb. 13, 2016 Rise Set
Actual Time
Civil Twilight
Nautical Twilight
Astronomical Twilight
Moon
Length of Visible Light
Length of Day
Tomorrow will be .
, % of the Moon is Illuminated

Today's Extremes

State Highs State Lows

Community

WunderPhotos

Upload Photos

1,892,746 photos uploaded!

WunderBlog® & News

Nearby

Air Quality

  Air Quality AQ Index Pollutant
Not available.

Snow Depth

Station Depth Elevation

Earthquake Activity

City Distance Mag. Time & Date
Minimum magnitude displayed is 2.5.

Coastal Water Temperatures

Place Temperature

Stations

Nearby Weather Stations

Station Location Temp. Windchill Dew Point Humidity Wind Precip. Elev Updated Type
                   

Watches & Warnings

Wind Advisory
Issued: 7:45 PM PST Feb. 13, 2016 – National Weather Service

... Wind Advisory in effect until 3 PM PST Sunday...

The National Weather Service in Los Angeles/Oxnard has issued a
Wind Advisory... which is in effect until 3 PM PST Sunday.

* Winds and timing... areas of north winds increasing to 15 to 25
mph with gusts to 40 mph... shifting to the northeast on Sunday.

* Impacts... major roadways that could be affected include
interstates 5 and 405... as well as highways 101 and 118.

Precautionary/preparedness actions...

When driving... use extra caution. Be prepared for sudden gusty
cross winds.